Time;durP1;ratioP1;P1;durP2;ratioP2;P2;SDS_P1;SDS_P2;PMS_P1;PMS_P2;Temp;Humidity;BMP_temperature;BMP_pressure;BME280_temperature;BME280_humidity;BME280_pressure;Samples;Min_cycle;Max_cycle;Signal;HPM_P1;HPM_P2
2023/06/23 00:01:00;;;;;;;7.07;6.47;;;;;;;;;;5054598;28;20048;-68
2023/06/23 00:03:25;;;;;;;6.65;6.03;;;;;;;;;;5036313;28;20037;-68
2023/06/23 00:05:50;;;;;;;6.63;5.93;;;;;;;;;;5054891;28;20037;-68
2023/06/23 00:08:16;;;;;;;6.55;6.05;;;;;;;;;;5036616;28;20041;-69
2023/06/23 00:10:45;;;;;;;7.05;6.55;;;;;;;;;;5036695;28;20131;-63
2023/06/23 00:13:11;;;;;;;6.57;6.07;;;;;;;;;;5054494;28;20041;-63
2023/06/23 00:15:36;;;;;;;7.47;6.78;;;;;;;;;;5036724;28;20044;-63
2023/06/23 00:18:01;;;;;;;7.32;6.63;;;;;;;;;;5054031;28;20043;-64
2023/06/23 00:20:27;;;;;;;7.32;6.72;;;;;;;;;;5035976;28;20049;-68
2023/06/23 00:22:55;;;;;;;6.68;5.72;;;;;;;;;;5093791;23;20416;-69
2023/06/23 00:25:21;;;;;;;6.47;5.97;;;;;;;;;;5036461;28;20485;-64
2023/06/23 00:27:46;;;;;;;5.65;5.25;;;;;;;;;;5053494;28;20032;-65
2023/06/23 00:30:12;;;;;;;7.05;6.45;;;;;;;;;;5053127;28;20282;-69
2023/06/23 00:32:38;;;;;;;6.20;5.70;;;;;;;;;;5054234;28;20043;-69
2023/06/23 00:35:06;;;;;;;6.10;5.68;;;;;;;;;;5054034;28;20107;-64
2023/06/23 00:37:33;;;;;;;7.15;6.63;;;;;;;;;;5036585;28;20067;-63
2023/06/23 00:39:58;;;;;;;6.25;5.75;;;;;;;;;;5054266;28;20037;-63
2023/06/23 00:42:26;;;;;;;5.75;5.25;;;;;;;;;;5036096;28;20473;-64
2023/06/23 00:44:53;;;;;;;5.70;5.30;;;;;;;;;;5036435;28;20080;-64
2023/06/23 00:47:18;;;;;;;7.07;6.45;;;;;;;;;;5036088;28;20485;-63
2023/06/23 00:49:44;;;;;;;6.82;6.32;;;;;;;;;;5053089;28;20045;-63
2023/06/23 00:52:11;;;;;;;6.30;5.70;;;;;;;;;;5036144;28;20036;-68
2023/06/23 00:54:36;;;;;;;6.53;6.03;;;;;;;;;;5054213;28;20021;-68
2023/06/23 00:57:02;;;;;;;8.00;5.95;;;;;;;;;;5054042;28;20505;-62
2023/06/23 00:59:28;;;;;;;6.70;6.20;;;;;;;;;;5036048;28;20029;-63
2023/06/23 01:02:00;;;;;;;6.43;5.93;;;;;;;;;;5053453;28;20040;-63
2023/06/23 01:04:26;;;;;;;6.68;6.18;;;;;;;;;;5053977;28;20048;-63
2023/06/23 01:06:54;;;;;;;6.57;6.07;;;;;;;;;;5036228;28;20048;-63
2023/06/23 01:09:27;;;;;;;6.20;5.75;;;;;;;;;;5036039;28;20033;-68
2023/06/23 01:12:03;;;;;;;6.78;6.13;;;;;;;;;;5035923;28;20037;-68
2023/06/23 01:14:30;;;;;;;6.50;6.03;;;;;;;;;;5035714;28;20037;-68
2023/06/23 01:17:15;;;;;;;5.82;5.43;;;;;;;;;;5053193;28;20033;-68
2023/06/23 01:20:09;;;;;;;5.82;5.28;;;;;;;;;;5053841;28;20043;-68
2023/06/23 01:23:04;;;;;;;6.75;6.05;;;;;;;;;;5053184;28;20480;-68
2023/06/23 01:25:37;;;;;;;6.05;5.65;;;;;;;;;;5000311;28;20054;-68
2023/06/23 01:28:11;;;;;;;6.50;5.70;;;;;;;;;;5053625;28;20472;-68
2023/06/23 01:30:38;;;;;;;5.43;5.03;;;;;;;;;;5035844;28;20039;-68
2023/06/23 01:33:08;;;;;;;6.00;5.50;;;;;;;;;;5053528;28;20491;-68
2023/06/23 01:35:34;;;;;;;;;;;;;;;;;;5054088;28;20033;-68
2023/06/23 01:38:11;;;;;;;5.80;5.30;;;;;;;;;;5053430;28;20327;-67
2023/06/23 01:40:38;;;;;;;6.18;5.68;;;;;;;;;;5036014;28;20271;-67
2023/06/23 01:43:06;;;;;;;6.13;5.63;;;;;;;;;;5035285;28;20076;-67
2023/06/23 01:45:33;;;;;;;5.90;5.50;;;;;;;;;;5035511;28;20472;-67
2023/06/23 01:48:01;;;;;;;6.43;5.93;;;;;;;;;;5052990;28;20404;-67
2023/06/23 01:50:27;;;;;;;5.88;5.47;;;;;;;;;;5035084;28;20087;-68
2023/06/23 01:52:53;;;;;;;6.47;5.97;;;;;;;;;;5035382;28;20061;-68
2023/06/23 01:55:20;;;;;;;6.47;5.97;;;;;;;;;;5035573;28;20061;-68
2023/06/23 01:57:47;;;;;;;6.10;5.57;;;;;;;;;;5036319;28;20111;-63
2023/06/23 02:00:15;;;;;;;7.13;6.43;;;;;;;;;;5037639;28;20094;-63
2023/06/23 02:02:42;;;;;;;6.95;6.35;;;;;;;;;;5057365;28;20032;-63
2023/06/23 02:05:08;;;;;;;6.90;6.30;;;;;;;;;;5038654;28;20086;-63
2023/06/23 02:07:34;;;;;;;6.60;6.10;;;;;;;;;;5038912;28;20072;-62
2023/06/23 02:10:00;;;;;;;6.90;6.10;;;;;;;;;;5023126;28;20033;-62
2023/06/23 02:12:26;;;;;;;6.75;6.05;;;;;;;;;;5039048;28;20041;-67
2023/06/23 02:14:51;;;;;;;6.80;6.20;;;;;;;;;;5038868;28;20074;-67
2023/06/23 02:17:17;;;;;;;6.75;6.25;;;;;;;;;;5038656;28;20488;-67
2023/06/23 02:19:44;;;;;;;6.72;6.22;;;;;;;;;;5056783;28;20037;-67
2023/06/23 02:22:11;;;;;;;6.18;5.68;;;;;;;;;;5022512;28;20110;-66
2023/06/23 02:24:38;;;;;;;6.95;6.25;;;;;;;;;;5056767;28;20049;-67
2023/06/23 02:27:04;;;;;;;6.32;5.88;;;;;;;;;;5038334;28;20132;-68
2023/06/23 02:29:29;;;;;;;6.07;5.68;;;;;;;;;;5056614;28;20045;-67
2023/06/23 02:31:56;;;;;;;6.60;6.10;;;;;;;;;;5056385;28;20033;-67
2023/06/23 02:34:21;;;;;;;5.85;5.25;;;;;;;;;;5056124;28;20112;-67
2023/06/23 02:36:51;;;;;;;5.95;5.38;;;;;;;;;;5056653;28;20040;-63
2023/06/23 02:39:18;;;;;;;5.88;5.45;;;;;;;;;;5056580;28;20389;-63
2023/06/23 02:41:46;;;;;;;6.45;5.88;;;;;;;;;;5056447;28;20064;-63
2023/06/23 02:44:12;;;;;;;6.57;5.55;;;;;;;;;;5056222;28;20048;-63
2023/06/23 02:46:39;;;;;;;6.78;6.28;;;;;;;;;;5056468;28;20075;-63
2023/06/23 02:49:10;;;;;;;6.82;6.28;;;;;;;;;;5055929;28;20055;-63
2023/06/23 02:51:37;;;;;;;6.90;6.18;;;;;;;;;;5056105;28;20052;-63
2023/06/23 02:54:05;;;;;;;10.80;5.60;;;;;;;;;;5055528;28;20073;-63
2023/06/23 02:56:32;;;;;;;8.18;5.57;;;;;;;;;;5038794;28;20039;-63
2023/06/23 02:59:05;;;;;;;6.55;5.97;;;;;;;;;;5038147;28;20021;-63
2023/06/23 03:01:32;;;;;;;8.38;6.78;;;;;;;;;;5037728;28;20037;-63
2023/06/23 03:03:58;;;;;;;6.60;6.05;;;;;;;;;;5037846;28;20025;-63
2023/06/23 03:06:23;;;;;;;6.97;6.28;;;;;;;;;;5055564;28;20128;-64
2023/06/23 03:08:49;;;;;;;7.13;6.63;;;;;;;;;;5055586;28;20108;-67
2023/06/23 03:11:19;;;;;;;6.57;5.90;;;;;;;;;;5037188;28;20040;-66
2023/06/23 03:13:45;;;;;;;6.70;6.07;;;;;;;;;;5037848;28;20128;-66
2023/06/23 03:16:19;;;;;;;6.15;5.45;;;;;;;;;;5055714;28;20052;-63
2023/06/23 03:18:49;;;;;;;5.65;5.25;;;;;;;;;;5066267;22;20084;-62
2023/06/23 03:21:14;;;;;;;7.88;5.28;;;;;;;;;;5049853;28;20094;-62
2023/06/23 03:23:40;;;;;;;5.68;5.22;;;;;;;;;;5033087;28;20037;-62
2023/06/23 03:26:08;;;;;;;6.82;6.22;;;;;;;;;;5055335;28;20048;-64
2023/06/23 03:28:36;;;;;;;7.70;6.38;;;;;;;;;;5055335;28;20041;-64
2023/06/23 03:31:08;;;;;;;7.10;6.57;;;;;;;;;;5055270;28;20040;-62
2023/06/23 03:33:35;;;;;;;6.60;6.05;;;;;;;;;;5055170;28;20080;-63
2023/06/23 03:36:11;;;;;;;6.82;6.18;;;;;;;;;;5037921;28;20116;-63
2023/06/23 03:38:41;;;;;;;6.85;6.18;;;;;;;;;;5055738;28;20052;-63
2023/06/23 03:41:08;;;;;;;7.22;6.63;;;;;;;;;;5060635;28;20370;-63
2023/06/23 03:43:54;;;;;;;8.80;7.22;;;;;;;;;;5055258;28;20123;-63
2023/06/23 03:46:40;;;;;;;7.20;6.68;;;;;;;;;;5054616;28;20053;-62
2023/06/23 03:49:08;;;;;;;7.35;6.65;;;;;;;;;;5053778;28;20064;-63
2023/06/23 03:51:34;;;;;;;6.72;6.13;;;;;;;;;;5035285;28;20049;-62
2023/06/23 03:54:00;;;;;;;6.93;6.32;;;;;;;;;;5052607;28;20043;-64
2023/06/23 03:56:28;;;;;;;7.43;6.80;;;;;;;;;;5054152;28;20025;-63
2023/06/23 03:58:54;;;;;;;7.50;6.72;;;;;;;;;;5053834;28;20037;-63
2023/06/23 04:01:20;;;;;;;8.52;6.82;;;;;;;;;;5053860;28;20052;-63
2023/06/23 04:03:47;;;;;;;7.60;6.75;;;;;;;;;;5035964;28;20029;-63
2023/06/23 04:06:13;;;;;;;8.15;7.35;;;;;;;;;;5053836;28;20491;-63
2023/06/23 04:08:38;;;;;;;7.47;6.88;;;;;;;;;;5053673;28;20107;-63
2023/06/23 04:11:05;;;;;;;7.30;6.70;;;;;;;;;;5053132;28;20043;-63
2023/06/23 04:13:31;;;;;;;7.75;6.63;;;;;;;;;;5053512;28;20053;-63
2023/06/23 04:15:58;;;;;;;8.02;7.20;;;;;;;;;;5053493;28;20040;-63
2023/06/23 04:18:24;;;;;;;7.57;6.72;;;;;;;;;;5053294;28;20108;-63
2023/06/23 04:20:50;;;;;;;8.05;7.25;;;;;;;;;;5053416;28;20499;-62
2023/06/23 04:23:17;;;;;;;8.00;7.40;;;;;;;;;;5034639;28;20405;-63
2023/06/23 04:25:46;;;;;;;8.30;7.13;;;;;;;;;;5053334;28;20029;-64
2023/06/23 04:28:13;;;;;;;8.13;7.43;;;;;;;;;;5053501;28;20132;-64
2023/06/23 04:30:39;;;;;;;8.50;7.43;;;;;;;;;;5053594;28;20358;-64
2023/06/23 04:33:05;;;;;;;9.15;7.10;;;;;;;;;;5053616;28;20041;-63
2023/06/23 04:35:30;;;;;;;7.85;7.05;;;;;;;;;;5035460;28;20040;-65
2023/06/23 04:37:58;;;;;;;6.93;6.28;;;;;;;;;;5053658;28;20017;-64
2023/06/23 04:40:51;;;;;;;8.15;7.45;;;;;;;;;;5035733;28;20049;-65
2023/06/23 04:43:28;;;;;;;7.32;6.72;;;;;;;;;;5031790;28;20037;-64
2023/06/23 04:45:57;;;;;;;8.00;7.20;;;;;;;;;;5052948;28;20047;-64
2023/06/23 04:48:24;;;;;;;9.35;7.43;;;;;;;;;;5053305;28;20045;-65
2023/06/23 04:50:52;;;;;;;8.75;7.85;;;;;;;;;;5036294;28;20040;-64
2023/06/23 04:53:22;;;;;;;10.18;8.35;;;;;;;;;;5034693;28;20037;-65
2023/06/23 04:55:50;;;;;;;8.80;7.88;;;;;;;;;;5053088;28;20029;-66
2023/06/23 04:58:18;;;;;;;8.82;7.95;;;;;;;;;;5053080;28;20055;-66
2023/06/23 05:00:44;;;;;;;9.07;8.23;;;;;;;;;;5053115;28;20060;-66
2023/06/23 05:03:10;;;;;;;9.27;8.38;;;;;;;;;;5034732;28;20029;-68
2023/06/23 05:05:36;;;;;;;8.82;7.93;;;;;;;;;;5034899;28;20045;-65
2023/06/23 05:08:03;;;;;;;9.13;8.27;;;;;;;;;;5052968;28;20479;-67
2023/06/23 05:10:29;;;;;;;9.43;8.63;;;;;;;;;;5052241;28;20079;-67
2023/06/23 05:12:56;;;;;;;9.50;8.70;;;;;;;;;;5034731;28;20443;-68
2023/06/23 05:15:21;;;;;;;9.85;8.88;;;;;;;;;;5051825;28;20048;-71
2023/06/23 05:17:53;;;;;;;9.38;8.30;;;;;;;;;;5034698;28;20029;-73
2023/06/23 05:20:20;;;;;;;11.32;9.07;;;;;;;;;;5052368;28;20041;-71
2023/06/23 05:22:47;;;;;;;10.07;9.13;;;;;;;;;;5053007;28;20037;-70
2023/06/23 05:25:13;;;;;;;9.77;8.88;;;;;;;;;;5052986;28;20045;-69
2023/06/23 05:27:39;;;;;;;11.50;9.85;;;;;;;;;;5034766;28;20033;-71
2023/06/23 05:30:05;;;;;;;10.27;9.30;;;;;;;;;;5052372;28;20037;-71
2023/06/23 05:32:34;;;;;;;11.57;10.25;;;;;;;;;;5018152;28;20049;-71
2023/06/23 05:35:01;;;;;;;10.55;9.18;;;;;;;;;;5053383;28;20123;-71
2023/06/23 05:37:31;;;;;;;8.25;7.53;;;;;;;;;;5038260;28;20043;-71
2023/06/23 05:39:57;;;;;;;7.95;7.13;;;;;;;;;;5039397;28;20041;-67
2023/06/23 05:42:27;;;;;;;9.82;7.18;;;;;;;;;;5057158;28;20090;-71
2023/06/23 05:44:53;;;;;;;7.72;5.15;;;;;;;;;;5057450;28;20385;-72
2023/06/23 05:47:22;;;;;;;7.90;5.72;;;;;;;;;;5072501;28;20033;-72
2023/06/23 05:49:49;;;;;;;10.02;5.57;;;;;;;;;;5038233;28;20037;-74
2023/06/23 05:52:16;;;;;;;10.70;3.90;;;;;;;;;;5056081;28;20068;-74
2023/06/23 05:54:44;;;;;;;7.10;3.33;;;;;;;;;;5037995;28;20044;-74
2023/06/23 05:57:16;;;;;;;11.20;3.63;;;;;;;;;;5021890;28;20055;-75
2023/06/23 05:59:43;;;;;;;16.00;4.53;;;;;;;;;;5038939;28;20119;-74
2023/06/23 06:02:13;;;;;;;14.15;4.75;;;;;;;;;;5057610;28;20036;-75
2023/06/23 06:04:39;;;;;;;12.90;4.35;;;;;;;;;;5058465;28;20032;-76
2023/06/23 06:07:06;;;;;;;14.93;4.70;;;;;;;;;;5076194;28;20044;-75
2023/06/23 06:09:33;;;;;;;11.20;4.05;;;;;;;;;;5076246;28;20392;-76
2023/06/23 06:11:58;;;;;;;10.52;4.20;;;;;;;;;;5058630;28;20032;-75
2023/06/23 06:14:24;;;;;;;11.95;4.70;;;;;;;;;;5076513;28;20047;-75
2023/06/23 06:16:55;;;;;;;11.48;3.65;;;;;;;;;;5058792;28;20440;-75
2023/06/23 06:19:21;;;;;;;;;;;;;;;;;;5076550;28;20044;-76
2023/06/23 06:21:48;;;;;;;9.77;3.75;;;;;;;;;;5076929;28;19912;-76
2023/06/23 06:24:14;;;;;;;11.75;3.78;;;;;;;;;;5075987;28;20020;-76
2023/06/23 06:26:41;;;;;;;10.98;4.07;;;;;;;;;;5075938;28;20126;-76
2023/06/23 06:29:08;;;;;;;9.55;3.60;;;;;;;;;;5075633;28;20037;-76
2023/06/23 06:31:36;;;;;;;12.88;4.20;;;;;;;;;;5058078;28;20036;-75
2023/06/23 06:34:05;;;;;;;14.98;3.88;;;;;;;;;;5076427;28;20040;-75
2023/06/23 06:36:32;;;;;;;12.30;3.80;;;;;;;;;;5076313;28;20025;-76
2023/06/23 06:38:58;;;;;;;8.30;3.53;;;;;;;;;;5076409;28;20024;-76
2023/06/23 06:41:24;;;;;;;7.45;3.58;;;;;;;;;;5057875;28;20043;-76
2023/06/23 06:43:51;;;;;;;8.82;3.80;;;;;;;;;;5076348;28;20446;-76
2023/06/23 06:46:17;;;;;;;8.30;3.55;;;;;;;;;;5074974;28;20036;-71
2023/06/23 06:48:49;;;;;;;8.57;4.10;;;;;;;;;;5057207;28;20020;-74
2023/06/23 06:51:17;;;;;;;8.40;3.72;;;;;;;;;;5057673;28;20053;-74
2023/06/23 06:53:43;;;;;;;12.13;4.35;;;;;;;;;;5075411;28;20448;-74
2023/06/23 06:56:08;;;;;;;8.52;3.72;;;;;;;;;;5075432;28;20032;-74
2023/06/23 06:58:35;;;;;;;7.78;3.83;;;;;;;;;;5075166;28;20468;-74
2023/06/23 07:01:00;;;;;;;7.13;4.00;;;;;;;;;;5057539;28;20366;-74
2023/06/23 07:03:26;;;;;;;10.55;5.00;;;;;;;;;;5057438;28;20047;-74
2023/06/23 07:05:51;;;;;;;14.23;7.40;;;;;;;;;;5057377;28;20457;-74
2023/06/23 07:08:16;;;;;;;11.18;5.32;;;;;;;;;;5074913;28;20032;-71
2023/06/23 07:10:42;;;;;;;9.50;4.50;;;;;;;;;;5074927;28;20033;-63
2023/06/23 07:13:07;;;;;;;9.38;4.78;;;;;;;;;;5074945;28;20396;-69
2023/06/23 07:15:34;;;;;;;12.43;4.57;;;;;;;;;;5074340;28;20036;-75
2023/06/23 07:17:59;;;;;;;9.15;3.78;;;;;;;;;;5068201;28;20588;-72
2023/06/23 07:20:25;;;;;;;7.28;4.00;;;;;;;;;;5054665;28;20124;-75
2023/06/23 07:22:50;;;;;;;5.15;4.00;;;;;;;;;;5054753;28;20111;-75
2023/06/23 07:25:15;;;;;;;7.78;3.90;;;;;;;;;;5054548;28;20041;-75
2023/06/23 07:27:41;;;;;;;10.65;4.13;;;;;;;;;;5037026;28;20052;-75
2023/06/23 07:30:06;;;;;;;6.28;4.35;;;;;;;;;;5036776;28;20033;-75
2023/06/23 07:32:32;;;;;;;6.72;4.10;;;;;;;;;;5054871;28;20476;-75
2023/06/23 07:34:57;;;;;;;7.05;3.72;;;;;;;;;;5054803;28;20048;-75
2023/06/23 07:37:23;;;;;;;4.22;3.20;;;;;;;;;;5036409;28;20511;-76
2023/06/23 07:39:48;;;;;;;4.95;3.33;;;;;;;;;;5019661;28;20020;-76
2023/06/23 07:42:15;;;;;;;8.75;4.30;;;;;;;;;;5036945;28;20369;-76
2023/06/23 07:44:40;;;;;;;7.32;3.50;;;;;;;;;;5020356;28;20099;-76
2023/06/23 07:47:06;;;;;;;6.90;3.53;;;;;;;;;;5054622;28;20484;-75
2023/06/23 07:49:37;;;;;;;5.75;4.03;;;;;;;;;;5036763;28;20041;-76
2023/06/23 07:52:04;;;;;;;7.88;4.85;;;;;;;;;;5055160;28;20044;-76
2023/06/23 07:54:30;;;;;;;10.57;5.15;;;;;;;;;;5036799;28;20054;-76
2023/06/23 07:56:56;;;;;;;10.50;5.25;;;;;;;;;;5054381;28;20060;-76
2023/06/23 07:59:36;;;;;;;10.15;4.88;;;;;;;;;;5054530;28;20041;-76
2023/06/23 08:02:02;;;;;;;;;;;;;;;;;;5055057;28;20033;-76
2023/06/23 08:04:36;;;;;;;8.73;5.20;;;;;;;;;;5054437;28;19915;-76
2023/06/23 08:07:01;;;;;;;9.63;5.45;;;;;;;;;;5036695;28;20386;-76
2023/06/23 08:09:27;;;;;;;11.05;4.88;;;;;;;;;;5054997;28;20117;-76
2023/06/23 08:11:53;;;;;;;9.13;5.78;;;;;;;;;;5054489;28;20043;-76
2023/06/23 08:14:19;;;;;;;11.93;5.90;;;;;;;;;;5036536;28;20036;-76
2023/06/23 08:16:44;;;;;;;10.90;5.70;;;;;;;;;;5054463;28;20033;-76
2023/06/23 08:19:10;;;;;;;11.20;5.63;;;;;;;;;;5019497;28;20116;-76
2023/06/23 08:21:37;;;;;;;9.02;5.65;;;;;;;;;;5054012;28;20061;-76
2023/06/23 08:24:03;;;;;;;6.90;5.05;;;;;;;;;;5054390;28;20059;-75
2023/06/23 08:26:29;;;;;;;8.65;5.15;;;;;;;;;;5036528;28;20052;-75
2023/06/23 08:28:54;;;;;;;10.57;5.45;;;;;;;;;;5054213;28;20033;-75
2023/06/23 08:31:20;;;;;;;7.85;5.20;;;;;;;;;;5054512;28;20041;-75
2023/06/23 08:33:46;;;;;;;11.57;5.05;;;;;;;;;;5054249;28;20071;-76
2023/06/23 08:36:11;;;;;;;11.50;5.40;;;;;;;;;;5053747;28;20083;-76
2023/06/23 08:38:36;;;;;;;8.80;4.38;;;;;;;;;;5053537;28;20037;-76
2023/06/23 08:41:03;;;;;;;10.38;5.10;;;;;;;;;;5053617;28;20384;-76
2023/06/23 08:43:29;;;;;;;7.10;5.18;;;;;;;;;;5053734;28;20498;-76
2023/06/23 08:45:56;;;;;;;8.48;4.80;;;;;;;;;;5053534;28;20106;-76
2023/06/23 08:48:23;;;;;;;10.02;4.90;;;;;;;;;;5035746;28;20049;-75
2023/06/23 08:50:50;;;;;;;9.75;4.68;;;;;;;;;;5053390;28;20041;-76
2023/06/23 08:53:15;;;;;;;9.80;5.57;;;;;;;;;;5054168;28;20033;-76
2023/06/23 08:55:40;;;;;;;8.68;5.00;;;;;;;;;;5035504;28;20051;-76
2023/06/23 08:58:06;;;;;;;7.85;4.85;;;;;;;;;;5035666;28;20036;-76
2023/06/23 09:00:32;;;;;;;9.30;5.32;;;;;;;;;;5036005;28;20043;-76
2023/06/23 09:02:57;;;;;;;7.68;5.38;;;;;;;;;;5054034;28;20029;-76
2023/06/23 09:05:23;;;;;;;11.80;5.75;;;;;;;;;;5036112;28;20523;-76
2023/06/23 09:07:49;;;;;;;9.23;5.78;;;;;;;;;;5036209;28;20103;-76
2023/06/23 09:10:18;;;;;;;9.25;5.72;;;;;;;;;;5053308;28;20045;-76
2023/06/23 09:13:01;;;;;;;9.85;5.25;;;;;;;;;;5053887;28;20044;-75
2023/06/23 09:15:27;;;;;;;8.77;5.35;;;;;;;;;;5053962;28;20033;-76
2023/06/23 09:17:52;;;;;;;7.40;5.50;;;;;;;;;;5053536;28;20428;-76
2023/06/23 09:20:18;;;;;;;8.68;5.78;;;;;;;;;;5053187;28;20113;-76
2023/06/23 09:22:45;;;;;;;7.80;5.75;;;;;;;;;;5035818;28;20119;-75
2023/06/23 09:25:30;;;;;;;9.50;5.95;;;;;;;;;;5053407;28;20076;-76
2023/06/23 09:27:55;;;;;;;11.10;6.70;;;;;;;;;;5053444;28;20037;-76
2023/06/23 09:30:30;;;;;;;7.35;5.90;;;;;;;;;;5053800;28;20461;-76
2023/06/23 09:32:56;;;;;;;10.15;6.25;;;;;;;;;;5053569;28;20128;-76
2023/06/23 09:35:23;;;;;;;9.40;6.05;;;;;;;;;;5035632;28;20135;-76
2023/06/23 09:37:49;;;;;;;7.78;6.43;;;;;;;;;;5035543;28;20033;-76
2023/06/23 09:40:24;;;;;;;9.00;6.60;;;;;;;;;;5019236;28;20035;-76
2023/06/23 09:42:49;;;;;;;13.52;7.43;;;;;;;;;;5053729;28;20037;-76
2023/06/23 09:45:33;;;;;;;11.88;6.95;;;;;;;;;;5112136;27;20820;-76
2023/06/23 09:47:58;;;;;;;10.93;7.45;;;;;;;;;;5110571;28;20456;-76
2023/06/23 09:50:27;;;;;;;11.98;7.93;;;;;;;;;;5110305;28;20068;-76
2023/06/23 09:53:12;;;;;;;10.82;8.25;;;;;;;;;;5110021;28;20111;-75
2023/06/23 09:55:37;;;;;;;12.48;8.68;;;;;;;;;;5110090;28;20389;-75
2023/06/23 09:58:08;;;;;;;10.80;8.30;;;;;;;;;;5110120;28;20028;-76
2023/06/23 10:00:33;;;;;;;15.35;8.15;;;;;;;;;;5111013;28;20081;-76
2023/06/23 10:02:59;;;;;;;11.30;8.95;;;;;;;;;;5110904;28;20027;-75
2023/06/23 10:05:25;;;;;;;12.65;8.30;;;;;;;;;;5109889;28;20032;-75
2023/06/23 10:08:10;;;;;;;12.73;9.48;;;;;;;;;;5111172;28;20081;-76
2023/06/23 10:10:42;;;;;;;16.45;9.65;;;;;;;;;;5111637;28;20028;-75
2023/06/23 10:13:08;;;;;;;9.15;8.13;;;;;;;;;;5111451;28;20076;-76
2023/06/23 10:15:34;;;;;;;9.35;7.05;;;;;;;;;;5110796;28;20032;-76
2023/06/23 10:18:01;;;;;;;11.38;8.07;;;;;;;;;;5110154;28;20031;-76
2023/06/23 10:20:26;;;;;;;11.25;9.32;;;;;;;;;;5110115;28;20031;-76
2023/06/23 10:22:55;;;;;;;8.40;7.20;;;;;;;;;;5111322;28;20024;-75
2023/06/23 10:25:21;;;;;;;8.57;7.72;;;;;;;;;;5092673;28;20011;-75
2023/06/23 10:27:50;;;;;;;12.50;8.57;;;;;;;;;;5109740;28;20480;-76
2023/06/23 10:30:17;;;;;;;12.73;9.63;;;;;;;;;;5111070;28;20016;-76
2023/06/23 10:32:46;;;;;;;10.93;8.73;;;;;;;;;;5110798;28;20384;-76
2023/06/23 10:35:11;;;;;;;12.65;9.52;;;;;;;;;;5109515;28;20036;-75
2023/06/23 10:37:38;;;;;;;13.02;11.55;;;;;;;;;;5110728;28;20035;-74
2023/06/23 10:40:04;;;;;;;13.35;10.45;;;;;;;;;;5109448;28;20110;-65
2023/06/23 10:42:33;;;;;;;14.65;10.50;;;;;;;;;;5110330;28;20185;-75
2023/06/23 10:44:58;;;;;;;11.90;10.13;;;;;;;;;;5110477;28;20134;-71
2023/06/23 10:47:24;;;;;;;13.65;10.82;;;;;;;;;;5110260;28;20052;-72
2023/06/23 10:49:50;;;;;;;8.55;6.63;;;;;;;;;;5108976;28;20032;-76
2023/06/23 10:52:26;;;;;;;11.63;9.57;;;;;;;;;;5110589;28;20073;-75
2023/06/23 10:54:52;;;;;;;14.07;10.88;;;;;;;;;;5108182;28;20032;-75
2023/06/23 10:57:40;;;;;;;16.05;11.40;;;;;;;;;;5095317;28;20031;-76
2023/06/23 11:00:07;;;;;;;8.27;6.15;;;;;;;;;;5095061;28;20035;-76
2023/06/23 11:02:52;;;;;;;12.48;10.70;;;;;;;;;;5093942;28;20032;-76
2023/06/23 11:05:17;;;;;;;16.85;10.85;;;;;;;;;;5095401;28;20028;-76
2023/06/23 11:08:02;;;;;;;16.80;11.23;;;;;;;;;;5093869;28;20035;-75
2023/06/23 11:10:50;;;;;;;15.25;11.10;;;;;;;;;;5093087;28;20032;-75
2023/06/23 11:13:15;;;;;;;16.13;10.88;;;;;;;;;;5093063;28;20024;-75
2023/06/23 11:15:47;;;;;;;12.57;10.27;;;;;;;;;;5093429;28;20497;-75
2023/06/23 11:18:14;;;;;;;15.00;11.27;;;;;;;;;;5093035;28;20496;-76
2023/06/23 11:20:43;;;;;;;15.18;11.95;;;;;;;;;;5093588;28;20454;-76
2023/06/23 11:23:11;;;;;;;16.75;13.50;;;;;;;;;;5094170;28;20012;-75
2023/06/23 11:25:45;;;;;;;18.10;12.05;;;;;;;;;;5094443;28;20036;-75
2023/06/23 11:28:29;;;;;;;14.05;10.02;;;;;;;;;;5094018;28;20032;-76
2023/06/23 11:31:03;;;;;;;13.48;9.95;;;;;;;;;;5094047;28;20046;-75
2023/06/23 11:33:32;;;;;;;11.30;8.10;;;;;;;;;;5094572;28;20039;-75
2023/06/23 11:36:04;;;;;;;11.88;8.05;;;;;;;;;;5093239;28;20035;-75
2023/06/23 11:38:33;;;;;;;9.52;7.05;;;;;;;;;;5094543;28;20050;-75
2023/06/23 11:40:59;;;;;;;6.68;5.97;;;;;;;;;;5092909;28;20028;-75
2023/06/23 11:43:24;;;;;;;9.35;6.28;;;;;;;;;;5093978;28;20393;-75
2023/06/23 11:45:56;;;;;;;10.80;6.38;;;;;;;;;;5094326;28;20589;-75
2023/06/23 11:48:28;;;;;;;7.57;6.80;;;;;;;;;;5094331;28;20478;-75
2023/06/23 11:50:54;;;;;;;10.43;6.22;;;;;;;;;;5093958;28;20032;-75
2023/06/23 11:53:20;;;;;;;8.50;6.95;;;;;;;;;;5093911;28;20027;-76
2023/06/23 11:55:45;;;;;;;8.82;6.65;;;;;;;;;;5094289;28;20111;-76
2023/06/23 11:58:10;;;;;;;9.10;6.78;;;;;;;;;;5094083;28;20032;-76
2023/06/23 12:00:36;;;;;;;8.60;6.80;;;;;;;;;;5093146;28;20065;-75
2023/06/23 12:03:01;;;;;;;7.55;6.03;;;;;;;;;;5092579;28;20029;-76
2023/06/23 12:05:27;;;;;;;11.88;7.03;;;;;;;;;;5093711;28;20089;-76
2023/06/23 12:07:54;;;;;;;7.03;6.30;;;;;;;;;;5092621;28;20032;-75
2023/06/23 12:10:20;;;;;;;7.15;6.45;;;;;;;;;;5093793;28;20028;-75
2023/06/23 12:12:48;;;;;;;11.18;6.38;;;;;;;;;;5093790;28;20032;-76
2023/06/23 12:15:14;;;;;;;7.82;6.25;;;;;;;;;;5092390;28;20024;-75
2023/06/23 12:17:41;;;;;;;6.53;5.90;;;;;;;;;;5093668;28;20039;-75
2023/06/23 12:20:07;;;;;;;8.18;5.72;;;;;;;;;;5093719;28;20470;-76
2023/06/23 12:22:36;;;;;;;8.02;5.32;;;;;;;;;;5093537;28;20016;-75
2023/06/23 12:25:02;;;;;;;6.50;5.97;;;;;;;;;;5092381;28;20103;-75
2023/06/23 12:27:29;;;;;;;7.63;5.50;;;;;;;;;;5075768;28;20016;-76
2023/06/23 12:29:54;;;;;;;6.20;5.57;;;;;;;;;;5093583;28;20020;-76
2023/06/23 12:32:20;;;;;;;5.38;4.95;;;;;;;;;;5093637;28;20020;-76
2023/06/23 12:34:45;;;;;;;6.45;4.78;;;;;;;;;;5092157;28;20020;-76
2023/06/23 12:37:12;;;;;;;5.10;4.60;;;;;;;;;;5091998;28;20036;-76
2023/06/23 12:39:37;;;;;;;5.55;4.50;;;;;;;;;;5093308;28;20035;-76
2023/06/23 12:42:03;;;;;;;6.75;5.30;;;;;;;;;;5091944;28;20482;-76
2023/06/23 12:44:32;;;;;;;5.93;4.80;;;;;;;;;;5091754;28;20045;-76
2023/06/23 12:46:58;;;;;;;6.15;4.60;;;;;;;;;;5075213;28;20374;-75
2023/06/23 12:49:27;;;;;;;7.55;4.93;;;;;;;;;;5093017;28;20032;-76
2023/06/23 12:51:52;;;;;;;5.57;4.57;;;;;;;;;;5091763;28;20040;-76
2023/06/23 12:54:17;;;;;;;7.38;4.93;;;;;;;;;;5093059;28;20028;-75
2023/06/23 12:56:43;;;;;;;4.88;4.47;;;;;;;;;;5092034;28;20401;-76
2023/06/23 12:59:08;;;;;;;4.70;3.95;;;;;;;;;;5074939;28;20119;-76
2023/06/23 13:01:33;;;;;;;4.65;4.20;;;;;;;;;;5092931;28;20032;-76
2023/06/23 13:03:59;;;;;;;5.03;4.60;;;;;;;;;;5092831;28;20114;-73
2023/06/23 13:06:24;;;;;;;5.85;4.60;;;;;;;;;;5092672;28;20082;-74
2023/06/23 13:08:51;;;;;;;6.18;4.32;;;;;;;;;;5092447;28;20074;-74
2023/06/23 13:11:18;;;;;;;4.78;3.70;;;;;;;;;;5091942;28;20028;-74
2023/06/23 13:13:43;;;;;;;4.70;3.67;;;;;;;;;;5093545;28;20039;-74
2023/06/23 13:16:09;;;;;;;4.18;3.88;;;;;;;;;;5094120;28;20028;-74
2023/06/23 13:18:34;;;;;;;5.20;3.95;;;;;;;;;;5093966;28;20035;-74
2023/06/23 13:20:59;;;;;;;5.38;4.00;;;;;;;;;;5092864;28;20028;-74
2023/06/23 13:23:24;;;;;;;4.18;3.65;;;;;;;;;;5093916;28;20038;-74
2023/06/23 13:25:50;;;;;;;3.97;3.60;;;;;;;;;;5091854;28;20030;-69
2023/06/23 13:28:15;;;;;;;4.05;3.65;;;;;;;;;;5091489;28;20046;-75
2023/06/23 13:30:41;;;;;;;4.93;4.05;;;;;;;;;;5093052;28;20028;-75
2023/06/23 13:33:06;;;;;;;5.35;4.32;;;;;;;;;;5093792;28;20036;-81
2023/06/23 13:35:32;;;;;;;5.75;3.90;;;;;;;;;;5092814;28;20028;-76
2023/06/23 13:37:57;;;;;;;4.75;4.13;;;;;;;;;;5092338;28;20378;-76
2023/06/23 13:40:23;;;;;;;4.65;3.97;;;;;;;;;;5092763;28;20039;-76
2023/06/23 13:42:48;;;;;;;4.18;3.88;;;;;;;;;;5093347;28;20119;-76
2023/06/23 13:45:14;;;;;;;4.15;3.65;;;;;;;;;;5091517;28;20055;-70
2023/06/23 13:47:41;;;;;;;7.47;4.78;;;;;;;;;;5092861;28;20073;-68
2023/06/23 13:50:11;;;;;;;6.22;4.50;;;;;;;;;;5092942;28;20427;-71
2023/06/23 13:52:43;;;;;;;4.20;3.80;;;;;;;;;;5091849;28;20081;-75
2023/06/23 13:55:09;;;;;;;4.80;4.13;;;;;;;;;;5075223;28;20032;-72
2023/06/23 13:57:35;;;;;;;6.68;4.00;;;;;;;;;;5092281;28;20024;-76
2023/06/23 14:00:00;;;;;;;5.32;4.43;;;;;;;;;;5093537;28;20511;-75
2023/06/23 14:02:26;;;;;;;6.85;4.43;;;;;;;;;;5093763;28;20451;-75
2023/06/23 14:04:51;;;;;;;9.55;4.85;;;;;;;;;;5093160;28;20051;-75
2023/06/23 14:07:16;;;;;;;6.05;4.43;;;;;;;;;;5093845;28;20039;-75
2023/06/23 14:09:42;;;;;;;4.85;4.45;;;;;;;;;;5093614;28;20028;-75
2023/06/23 14:12:07;;;;;;;6.47;4.40;;;;;;;;;;5093179;28;20020;-75
2023/06/23 14:14:33;;;;;;;4.90;4.40;;;;;;;;;;5091198;28;20036;-75
2023/06/23 14:16:58;;;;;;;4.90;4.22;;;;;;;;;;5092770;28;20066;-75
2023/06/23 14:19:24;;;;;;;5.82;4.57;;;;;;;;;;5092666;28;20132;-75
2023/06/23 14:21:49;;;;;;;5.18;3.60;;;;;;;;;;5091531;28;20621;-74
2023/06/23 14:24:15;;;;;;;4.82;4.25;;;;;;;;;;5091248;28;20078;-74
2023/06/23 14:26:40;;;;;;;4.45;3.75;;;;;;;;;;5091398;28;20508;-74
2023/06/23 14:29:05;;;;;;;5.85;4.32;;;;;;;;;;5092053;28;20020;-74
2023/06/23 14:31:32;;;;;;;6.20;3.78;;;;;;;;;;5094786;28;20381;-74
2023/06/23 14:33:58;;;;;;;3.55;3.08;;;;;;;;;;5096921;28;20039;-74
2023/06/23 14:36:23;;;;;;;3.67;3.38;;;;;;;;;;5095793;28;20028;-74
2023/06/23 14:38:49;;;;;;;6.00;3.35;;;;;;;;;;5097047;28;20040;-74
2023/06/23 14:41:14;;;;;;;3.05;2.72;;;;;;;;;;5096905;28;20026;-74
2023/06/23 14:43:40;;;;;;;4.15;2.92;;;;;;;;;;5095527;28;20052;-74